地図

経路データ

SID SEASON NUMBER BASIN SUBBASIN NAME ISO_TIME NATURE LAT LON WMO_WIND WMO_PRES WMO_AGENCY TRACK_TYPE DIST2LAND LANDFALL IFLAG USA_AGENCY USA_ATCF_ID USA_LAT USA_LON USA_RECORD USA_STATUS USA_WIND USA_PRES USA_SSHS USA_R34_NE USA_R34_SE USA_R34_SW USA_R34_NW USA_R50_NE USA_R50_SE USA_R50_SW USA_R50_NW USA_R64_NE USA_R64_SE USA_R64_SW USA_R64_NW USA_POCI USA_ROCI USA_RMW USA_EYE TOKYO_LAT TOKYO_LON TOKYO_GRADE TOKYO_WIND TOKYO_PRES TOKYO_R50_DIR TOKYO_R50_LONG TOKYO_R50_SHORT TOKYO_R30_DIR TOKYO_R30_LONG TOKYO_R30_SHORT TOKYO_LAND CMA_LAT CMA_LON CMA_CAT CMA_WIND CMA_PRES HKO_LAT HKO_LON HKO_CAT HKO_WIND HKO_PRES NEWDELHI_LAT NEWDELHI_LON NEWDELHI_GRADE NEWDELHI_WIND NEWDELHI_PRES NEWDELHI_CI NEWDELHI_DP NEWDELHI_POCI REUNION_LAT REUNION_LON REUNION_TYPE REUNION_WIND REUNION_PRES REUNION_TNUM REUNION_CI REUNION_RMW REUNION_R34_NE REUNION_R34_SE REUNION_R34_SW REUNION_R34_NW REUNION_R50_NE REUNION_R50_SE REUNION_R50_SW REUNION_R50_NW REUNION_R64_NE REUNION_R64_SE REUNION_R64_SW REUNION_R64_NW BOM_LAT BOM_LON BOM_TYPE BOM_WIND BOM_PRES BOM_TNUM BOM_CI BOM_RMW BOM_R34_NE BOM_R34_SE BOM_R34_SW BOM_R34_NW BOM_R50_NE BOM_R50_SE BOM_R50_SW BOM_R50_NW BOM_R64_NE BOM_R64_SE BOM_R64_SW BOM_R64_NW BOM_ROCI BOM_POCI BOM_EYE BOM_POS_METHOD BOM_PRES_METHOD NADI_LAT NADI_LON NADI_CAT NADI_WIND NADI_PRES WELLINGTON_LAT WELLINGTON_LON WELLINGTON_WIND WELLINGTON_PRES DS824_LAT DS824_LON DS824_STAGE DS824_WIND DS824_PRES TD9636_LAT TD9636_LON TD9636_STAGE TD9636_WIND TD9636_PRES TD9635_LAT TD9635_LON TD9635_WIND TD9635_PRES TD9635_ROCI NEUMANN_LAT NEUMANN_LON NEUMANN_CLASS NEUMANN_WIND NEUMANN_PRES MLC_LAT MLC_LON MLC_CLASS MLC_WIND MLC_PRES USA_GUST BOM_GUST BOM_GUST_PER REUNION_GUST REUNION_GUST_PER USA_SEAHGT USA_SEARAD_NE USA_SEARAD_SE USA_SEARAD_SW USA_SEARAD_NW STORM_SPEED STORM_DIR
1957017S09064 1957 9 SI MM NOT_NAMED 1957-01-17 06:00:00 TS -8.80000 64.0000 main 1434 1389 O________OO___ jtwc_sh SH151957 -8.80000 64.0000 -1 -8.80000 64.0000 TC 25 -8.80000 64.0000 7 9 226
1957017S09064 1957 9 SI MM NOT_NAMED 1957-01-17 09:00:00 TS -9.09462 63.6890 main 1389 1345 P________PP___ SH151957 -9.10509 63.6676 -1 -9.10509 63.6676 TC 25 -9.07367 63.7318 7 8 224
1957017S09064 1957 9 SI MM NOT_NAMED 1957-01-17 12:00:00 TS -9.38592 63.4302 main 1345 1310 O________OP___ jtwc_sh SH151957 -9.40000 63.4000 -1 -9.40000 63.4000 TC 25 -9.35777 63.4907 7 7 216
1957017S09064 1957 9 SI MM NOT_NAMED 1957-01-17 15:00:00 TS -9.67763 63.2664 main 1310 1275 P________PP___ SH151957 -9.68496 63.2475 -1 -9.68496 63.2475 TC 25 -9.66297 63.3042 7 7 200
1957017S09064 1957 9 SI MM NOT_NAMED 1957-01-17 18:00:00 TS -10.0000 63.2000 main 1275 1235 O________OO___ jtwc_sh SH151957 -10.0000 63.2000 -1 -10.0000 63.2000 TC 25 -10.0000 63.2000 1 7 185
1957017S09064 1957 9 SI MM NOT_NAMED 1957-01-17 21:00:00 TS -10.3907 63.2118 main 1235 1201 P________PP___ SH151957 -10.4000 63.2200 -1 -10.4000 63.2200 TC 25 -10.3721 63.1955 1 8 173
1957017S09064 1957 9 SI MM NOT_NAMED 1957-01-18 00:00:00 TS -10.7841 63.2890 main 1201 1177 O________OP___ jtwc_sh SH151957 -10.8000 63.3000 -1 -10.8000 63.3000 TC 25 -10.7524 63.2670 1 8 166
1957017S09064 1957 9 SI MM NOT_NAMED 1957-01-18 03:00:00 TS -11.1272 63.3933 main 1177 1156 P________PP___ SH151957 -11.1375 63.4000 -1 -11.1375 63.4000 TC 30 -11.1065 63.3800 1 9 150
1957017S09064 1957 9 SI MM NOT_NAMED 1957-01-18 06:00:00 TS -11.5231 63.7154 reunion main 1156 1140 O____O___OO___ jtwc_sh SH151957 -11.4000 63.5000 -1 -13.0000 66.3000 99 9.90000 -11.4000 63.5000 TC 35 -11.4000 63.5000 2 9 140
1957017S09064 1957 9 SI MM NOT_NAMED 1957-01-18 09:00:00 TS -11.7905 63.9548 main 1147 1135 P____P___PP___ SH151957 -11.5800 63.5500 -1 -13.0260 66.3250 99 -11.5800 63.5500 TC 35 -11.5937 63.5791 2 6 136
1957017S09064 1957 9 SI MM NOT_NAMED 1957-01-18 12:00:00 TS -11.9775 64.1632 main 1141 1139 O____P___OP___ jtwc_sh SH151957 -11.7000 63.6000 -1 -13.0543 66.3393 99 -11.7000 63.6000 TC 35 -11.7250 63.6576 2 5 130
1957017S09064 1957 9 SI MM NOT_NAMED 1957-01-18 15:00:00 TS -12.1302 64.3624 main 1145 1137 P____P___PP___ SH151957 -11.8075 63.6925 -1 -13.0871 66.3322 99 -11.8075 63.6925 TC 35 -11.8187 63.7322 2 3 132
1957017S09064 1957 9 SI MM NOT_NAMED 1957-01-18 18:00:00 TS -12.2067 64.4232 main 1137 1135 O____P___OO___ jtwc_sh SH151957 -11.9000 63.8000 -1 -13.1269 66.2930 99 -11.9000 63.8000 TC 35 -11.9000 63.8000 2 2 144
1957017S09064 1957 9 SI MM NOT_NAMED 1957-01-18 21:00:00 TS -12.2897 64.4857 main 1135 1126 P____P___PP___ SH151957 -12.0000 63.9150 -1 -13.1759 66.2110 99 -12.0000 63.9150 TC 35 -11.9828 63.9017 2 2 152
1957017S09064 1957 9 SI MM NOT_NAMED 1957-01-19 00:00:00 TS -12.3747 64.5163 main 1126 1117 O____P___OP___ jtwc_sh SH151957 -12.1000 64.0000 -1 -13.2362 66.0753 99 -12.1000 64.0000 TC 35 -12.0624 63.9897 2 2 174
1957017S09064 1957 9 SI MM NOT_NAMED 1957-01-19 03:00:00 TS -12.4565 64.4958 main 1117 1102 P____P___PP___ SH151957 -12.1775 64.0375 -1 -13.3102 65.8753 99 -12.1775 64.0375 TC 35 -12.1608 64.0328 2 2 210
1957017S09064 1957 9 SI MM NOT_NAMED 1957-01-19 06:00:00 TS -12.5750 64.4000 reunion main 1102 1071 O____O___OO___ jtwc_sh SH151957 -12.3000 64.0000 -1 -13.4000 65.6000 99 9.90000 -12.3000 64.0000 TC 35 -12.3000 64.0000 2 4 220
1957017S09064 1957 9 SI MM NOT_NAMED 1957-01-19 09:00:00 TS -12.7692 64.2240 main 1071 1040 P____P___PP___ SH151957 -12.5275 63.8950 -1 -13.5067 65.2436 99 -12.5275 63.8950 TC 35 -12.5151 63.8624 2 6 225
1957017S09064 1957 9 SI MM NOT_NAMED 1957-01-19 12:00:00 TS -12.9995 63.9672 main 1040 1002 O____P___OP___ jtwc_sh SH151957 -12.8000 63.7000 -1 -13.6281 64.8208 99 -12.8000 63.7000 TC 35 -12.7701 63.6478 2 7 231
1957017S09064 1957 9 SI MM NOT_NAMED 1957-01-19 15:00:00 TS -13.2290 63.6451 main 995 957 P____P___PP___ SH151957 -13.0575 63.4225 -1 -13.7610 64.3512 99 -13.0575 63.4225 TC 35 -13.0401 63.3843 2 8 236
1957017S09064 1957 9 SI MM NOT_NAMED 1957-01-19 18:00:00 TS -13.4506 63.2887 main 948 920 O____P___OO___ jtwc_sh SH151957 -13.3000 63.1000 -1 -13.9026 63.8548 99 -13.3000 63.1000 TC 35 -13.3000 63.1000 2 8 239
1957017S09064 1957 9 SI MM NOT_NAMED 1957-01-19 21:00:00 TS -13.6479 62.9399 main 913 876 P____P___PP___ SH151957 -13.5075 62.7924 -1 -14.0499 63.3514 99 -13.5075 62.7924 TC 35 -13.5266 62.8232 2 8 240
1957017S09064 1957 9 SI MM NOT_NAMED 1957-01-20 00:00:00 TS -13.8345 62.5991 main 876 839 O____P___OP___ jtwc_sh SH151957 -13.7000 62.5000 -1 -14.2002 62.8611 99 -13.7000 62.5000 TC 35 -13.7376 62.5351 2 7 240
1957017S09064 1957 9 SI MM NOT_NAMED 1957-01-20 03:00:00 TS -14.0239 62.2821 main 839 802 P____P___PP___ SH151957 -13.9075 62.2350 -1 -14.3510 62.4040 99 -13.9075 62.2350 TC 35 -13.9298 62.2544 2 7 238
1957017S09064 1957 9 SI MM NOT_NAMED 1957-01-20 06:00:00 TS -14.2000 62.0000 reunion main 802 781 O____O___OO___ jtwc_sh SH151957 -14.1000 62.0000 -1 -14.5000 62.0000 99 9.90000 -14.1000 62.0000 TC 35 -14.1000 62.0000 2 6 238
1957017S09064 1957 9 SI MM NOT_NAMED 1957-01-20 09:00:00 TS -14.3439 61.7610 main 781 751 P____P___PP___ SH151957 -14.2650 61.7850 -1 -14.6154 61.6861 99 -14.2650 61.7850 TC 35 -14.2302 61.7878 2 5 238
1957017S09064 1957 9 SI MM NOT_NAMED 1957-01-20 12:00:00 TS -14.4677 61.5548 main 751 729 O____P___OP___ jtwc_sh SH151957 -14.4000 61.6000 -1 -14.7286 61.4144 99 -14.4000 61.6000 TC 35 -14.3423 61.6046 2 4 238
1957017S09064 1957 9 SI MM NOT_NAMED 1957-01-20 15:00:00 TS -14.5718 61.3781 main 729 709 P____P___PP___ SH151957 -14.4925 61.4424 -1 -14.8439 61.1836 99 -14.4925 61.4424 TC 35 -14.4583 61.4441 2 4 235
1957017S09064 1957 9 SI MM NOT_NAMED 1957-01-20 18:00:00 TS -14.6914 61.2231 main 709 694 O____P___OO___ jtwc_sh SH151957 -14.6000 61.3000 -1 -14.9655 60.9925 99 -14.6000 61.3000 TC 35 -14.6000 61.3000 2 4 227
1957017S09064 1957 9 SI MM NOT_NAMED 1957-01-20 21:00:00 TS -14.8572 61.0643 main 684 663 P____P___PP___ SH151957 -14.7775 61.1425 -1 -15.0977 60.8398 99 -14.7775 61.1425 TC 35 -14.7759 61.1324 2 5 218
1957017S09064 1957 9 SI MM NOT_NAMED 1957-01-21 00:00:00 TS -15.0568 60.9268 main 654 629 O____P___OP___ jtwc_sh SH151957 -15.0000 61.0000 -1 -15.2448 60.7243 99 -15.0000 61.0000 TC 35 -14.9825 60.9828 2 5 210
1957017S09064 1957 9 SI MM NOT_NAMED 1957-01-21 03:00:00 TS -15.2722 60.8167 main 629 610 P____P___PP___ SH151957 -15.2275 60.8775 -1 -15.4108 60.6448 99 -15.2275 60.8775 TC 35 -15.2228 60.8668 2 5 200
1957017S09064 1957 9 SI MM NOT_NAMED 1957-01-21 06:00:00 TS -15.5250 60.7500 reunion main 610 576 O____O___OO___ jtwc_sh SH151957 -15.5000 60.8000 -1 -15.6000 60.6000 99 9.90000 -15.5000 60.8000 TC 35 -15.5000 60.8000 2 6 190
1957017S09064 1957 9 SI MM NOT_NAMED 1957-01-21 09:00:00 TS -15.8275 60.7169 main 576 548 P____P___PP___ SH151957 -15.8350 60.7700 -1 -15.8139 60.5402 99 -15.8350 60.7700 TC 35 -15.8262 60.7873 2 6 182
1957017S09064 1957 9 SI MM NOT_NAMED 1957-01-21 12:00:00 TS -16.1587 60.7353 main 539 518 O____P___OP___ jtwc_sh SH151957 -16.2000 60.8000 -1 -16.0498 60.5163 99 -16.2000 60.8000 TC 35 -16.1849 60.8248 2 7 173
1957017S09064 1957 9 SI MM NOT_NAMED 1957-01-21 15:00:00 TS -16.4967 60.8031 main 518 500 P____P___PP___ SH151957 -16.5650 60.8924 -1 -16.3055 60.5279 99 -16.5650 60.8924 TC 35 -16.5512 60.8999 2 7 167
1957017S09064 1957 9 SI MM NOT_NAMED 1957-01-21 18:00:00 TS -16.8197 60.8936 main 500 475 O____P___OO___ jtwc_sh SH151957 -16.9000 61.0000 -1 -16.5788 60.5744 99 -16.9000 61.0000 TC 35 -16.9000 61.0000 2 6 167
1957017S09064 1957 9 SI MM NOT_NAMED 1957-01-21 21:00:00 TS -17.0906 60.9503 main 483 467 P____P___PP___ SH151957 -17.1575 61.0352 -1 -16.8672 60.6553 99 -17.1575 61.0352 TC 35 -17.1802 61.0755 2 6 166
1957017S09064 1957 9 SI MM NOT_NAMED 1957-01-22 00:00:00 TS -17.3527 61.0365 main 460 454 O____P___OP___ jtwc_sh SH151957 -17.4000 61.1000 -1 -17.1684 60.7702 99 -17.4000 61.1000 TC 35 -17.4422 61.1758 2 6 157
1957017S09064 1957 9 SI MM NOT_NAMED 1957-01-22 03:00:00 TS -17.6396 61.1892 main 462 451 P____P___PP___ SH151957 -17.6850 61.2626 -1 -17.4801 60.9186 99 -17.6850 61.2626 TC 50 -17.7082 61.3132 2 7 150
1957017S09064 1957 9 SI MM NOT_NAMED 1957-01-22 06:00:00 TS -17.9500 61.4000 reunion main 460 452 O____O___OO___ jtwc_sh SH151957 -18.0000 61.5000 -1 -17.8000 61.1000 99 9.90000 -18.0000 61.5000 TC 65 -18.0000 61.5000 4 8 145
1957017S09064 1957 9 SI MM NOT_NAMED 1957-01-22 09:00:00 TS -18.2833 61.6538 main 465 460 P____P___PP___ SH151957 -18.3350 61.7850 -1 -18.1126 61.2959 99 -18.3350 61.7850 TC 65 -18.3505 61.7494 4 9 143
1957017S09064 1957 9 SI MM NOT_NAMED 1957-01-22 12:00:00 TS -18.6408 61.9440 main 470 470 O____P___OP___ jtwc_sh SH151957 -18.7000 62.1000 -1 -18.4355 61.5289 99 -18.7000 62.1000 TC 65 -18.7277 62.0471 4 9 143
1957017S09064 1957 9 SI MM NOT_NAMED 1957-01-22 15:00:00 TS -19.0208 62.2413 main 483 483 P____P___PP___ SH151957 -19.1000 62.4001 -1 -18.7670 61.7938 99 -19.1000 62.4001 TC 65 -19.1161 62.3714 4 10 143
1957017S09064 1957 9 SI MM NOT_NAMED 1957-01-22 18:00:00 TS -19.4014 62.5462 main 501 501 O____P___OO___ jtwc_sh SH151957 -19.5000 62.7000 -1 -19.1056 62.0849 99 -19.5000 62.7000 TC 65 -19.5000 62.7000 4 9 142
1957017S09064 1957 9 SI MM NOT_NAMED 1957-01-22 21:00:00 TS -19.7575 62.8503 main 535 534 P____P___PP___ SH151957 -19.8574 63.0002 -1 -19.4498 62.3966 99 -19.8574 63.0002 TC 50 -19.8652 63.0043 4 9 141
1957017S09064 1957 9 SI MM NOT_NAMED 1957-01-23 00:00:00 TS -20.1050 63.1578 main 563 563 O____P___OP___ jtwc_sh SH151957 -20.2000 63.3000 -1 -19.7978 62.7235 99 -20.2000 63.3000 TC 35 -20.2224 63.3078 4 9 140
1957017S09064 1957 9 SI MM NOT_NAMED 1957-01-23 03:00:00 TS -20.4579 63.4669 main 594 594 P____P___PP___ SH151957 -20.5574 63.6001 -1 -20.1484 63.0599 99 -20.5574 63.6001 TC 35 -20.5683 63.6074 4 9 140
1957017S09064 1957 9 SI MM NOT_NAMED 1957-01-23 06:00:00 TS -20.8000 63.7750 reunion main 627 627 O____O___OO___ jtwc_sh SH151957 -20.9000 63.9000 -1 -20.5000 63.4000 99 9.90000 -20.9000 63.9000 TC 35 -20.9000 63.9000 2 9 138
1957017S09064 1957 9 SI MM NOT_NAMED 1957-01-23 09:00:00 TS -21.1213 64.1006 main 661 661 P____P___PP___ SH151957 -21.2075 64.2076 -1 -20.8561 63.8003 99 -21.2075 64.2076 TC 35 -21.2142 64.1867 2 9 136
1957017S09064 1957 9 SI MM NOT_NAMED 1957-01-23 12:00:00 TS -21.4325 64.4212 main 696 696 O____P___OP___ jtwc_sh SH151957 -21.5000 64.5000 -1 -21.2153 64.2193 99 -21.5000 64.5000 TC 35 -21.5148 64.4656 2 9 137
1957017S09064 1957 9 SI MM NOT_NAMED 1957-01-23 15:00:00 TS -21.7457 64.7228 main 732 732 P____P___PP___ SH151957 -21.7999 64.7577 -1 -21.5751 64.6391 99 -21.7999 64.7577 TC 35 -21.8080 64.7367 2 8 139
1957017S09064 1957 9 SI MM NOT_NAMED 1957-01-23 18:00:00 TS -22.0582 65.0103 main 772 772 O____P___OO___ jtwc_sh SH151957 -22.1000 65.0000 -1 -21.9329 65.0412 99 -22.1000 65.0000 TC 35 -22.1000 65.0000 2 8 140
1957017S09064 1957 9 SI MM NOT_NAMED 1957-01-23 21:00:00 TS -22.3706 65.2952 main 811 811 P____P___PP___ SH151957 -22.4000 65.2501 -1 -22.2864 65.4071 99 -22.4000 65.2501 TC 35 -22.3959 65.2736 2 8 141
1957017S09064 1957 9 SI MM NOT_NAMED 1957-01-24 00:00:00 TS -22.6815 65.5640 main 850 850 O____P___OP___ jtwc_sh SH151957 -22.7000 65.5000 -1 -22.6335 65.7182 99 -22.7000 65.5000 TC 35 -22.6925 65.5377 2 8 142
1957017S09064 1957 9 SI MM NOT_NAMED 1957-01-24 03:00:00 TS -22.9912 65.8171 main 879 879 P____P___PP___ SH151957 -23.0000 65.7650 -1 -22.9720 65.9556 99 -23.0000 65.7650 TC 50 -22.9928 65.7829 2 8 146
1957017S09064 1957 9 SI MM NOT_NAMED 1957-01-24 06:00:00 TS -23.3000 66.0250 reunion main 910 910 O____O___OO___ jtwc_sh SH151957 -23.3000 66.0000 -1 -23.3000 66.1000 99 9.90000 -23.3000 66.0000 TC 65 -23.3000 66.0000 4 7 153
1957017S09064 1957 9 SI MM NOT_NAMED 1957-01-24 09:00:00 TS -23.6030 66.1556 main 941 941 P____P___PP___ SH151957 -23.5924 66.1652 -1 -23.6135 66.1086 99 -23.5924 66.1652 TC 65 -23.6136 66.1833 4 6 162
1957017S09064 1957 9 SI MM NOT_NAMED 1957-01-24 12:00:00 TS -23.9131 66.2408 main 953 953 O____P___OP___ jtwc_sh SH151957 -23.9000 66.3000 -1 -23.9175 66.0250 99 -23.9000 66.3000 TC 65 -23.9348 66.3381 4 7 167
1957017S09064 1957 9 SI MM NOT_NAMED 1957-01-24 15:00:00 TS -24.2442 66.3094 main 975 975 P____P___PP___ SH151957 -24.2500 66.4500 -1 -24.2130 65.8635 99 -24.2500 66.4500 TC 65 -24.2636 66.4738 4 7 171
1957017S09064 1957 9 SI MM NOT_NAMED 1957-01-24 18:00:00 TS -24.5753 66.3597 main 1003 1003 O____P___OO___ jtwc_sh SH151957 -24.6000 66.6000 -1 -24.5012 65.6387 99 -24.6000 66.6000 TC 65 -24.6000 66.6000 4 6 171
1957017S09064 1957 9 SI MM NOT_NAMED 1957-01-24 21:00:00 TS -24.8665 66.4131 main 1018 1018 P____P___PP___ SH151957 -24.8925 66.7576 -1 -24.7829 65.3651 99 -24.8925 66.7576 TC 65 -24.8982 66.7722 4 6 172
1957017S09064 1957 9 SI MM NOT_NAMED 1957-01-25 00:00:00 TS -25.1673 66.4472 main 1034 1034 O____P___OP___ jtwc_sh SH151957 -25.2000 66.9000 -1 -25.0592 65.0575 99 -25.2000 66.9000 TC 65 -25.2101 66.9313 4 6 176
1957017S09064 1957 9 SI MM NOT_NAMED 1957-01-25 03:00:00 TS -25.5020 66.4601 main 1059 1059 P____P___PP___ SH151957 -25.5550 67.0299 -1 -25.3312 64.7308 99 -25.5550 67.0299 TC 65 -25.5669 67.0498 4 7 181
1957017S09064 1957 9 SI MM NOT_NAMED 1957-01-25 06:00:00 TS -25.9000 66.4250 reunion main 1073 1073 O____O___OO___ jtwc_sh SH151957 -26.0000 67.1000 -1 -25.6000 64.4000 99 9.90000 -26.0000 67.1000 TC 65 -26.0000 67.1000 4 9 187
1957017S09064 1957 9 SI MM NOT_NAMED 1957-01-25 09:00:00 TS -26.3842 66.3453 main 1096 1096 P____P___PP___ SH151957 -26.5625 67.0948 -1 -25.8669 64.0774 99 -26.5625 67.0948 TC 65 -26.5452 67.1142 4 10 191
1957017S09064 1957 9 SI MM NOT_NAMED 1957-01-25 12:00:00 TS -26.9246 66.2034 main 1121 1121 O____P___OP___ jtwc_sh SH151957 -27.2000 67.0000 -1 -26.1321 63.7644 99 -27.2000 67.0000 TC 65 -27.1662 67.0494 4 11 195
1957017S09064 1957 9 SI MM NOT_NAMED 1957-01-25 15:00:00 TS -27.4812 66.0159 main 1149 1149 P____P___PP___ SH151957 -27.8498 66.8596 -1 -26.3960 63.4593 99 -27.8498 66.8596 TC 65 -27.8292 66.8850 4 12 200
1957017S09064 1957 9 SI MM NOT_NAMED 1957-01-25 18:00:00 TS -28.0397 65.7402 main 1165 1165 O____P___OO___ jtwc_sh SH151957 -28.5000 66.6000 -1 -26.6587 63.1607 99 -28.5000 66.6000 TC 65 -28.5000 66.6000 4 12 208
1957017S09064 1957 9 SI MM NOT_NAMED 1957-01-25 21:00:00 TS -28.5677 65.3706 main 1192 1186 P____P___PP___ SH151957 -29.0998 66.2169 -1 -26.9203 62.8670 99 -29.0998 66.2169 TC 65 -29.1510 66.1816 4 13 215
1957017S09064 1957 9 SI MM NOT_NAMED 1957-01-26 00:00:00 TS -29.0905 64.9075 main 1203 1203 O____P___OP___ jtwc_sh SH151957 -29.7000 65.7000 -1 -27.1810 62.5767 99 -29.7000 65.7000 TC 65 -29.7810 65.6532 4 14 219
1957017S09064 1957 9 SI MM NOT_NAMED 1957-01-26 03:00:00 TS -29.6282 64.3738 main 1219 1217 P____P___PP___ SH151957 -30.3383 65.0796 -1 -27.4409 62.2882 99 -30.3383 65.0796 TC 65 -30.3954 65.0480 4 15 222
1957017S09064 1957 9 SI MM NOT_NAMED 1957-01-26 06:00:00 TS -30.1750 63.8000 reunion main 1244 O____O___OO___ jtwc_sh SH151957 -31.0000 64.4000 -1 -27.7000 62.0000 99 9.90000 -31.0000 64.4000 TC 65 -31.0000 64.4000 4 15 222

IBTrACS Databaseについて

本データベースは、米国NOAAが公開する1842年以降の世界の熱帯低気圧のベストトラックデータアーカイブInternational Best Track Archive for Climate Stewardship (IBTrACS)を、ウェブで閲覧しやすい形式に変換したものです。

最終更新日:2021-11-26